Kingsford Heights, IN (46346)

1:41 PM CST on December 04, 2016 (GMT -0600)
La Porte, IN | | Change Station

Elev 820 ft 41.59 °N, 86.73 °W | Updated 26 seconds ago

Overcast
Overcast
32.9 °F
Feels Like 33 °F
N
1.0
Wind Variable Wind from ENE
Gusts 3.0 mph

Today
High -- | Low -- °F
--% Chance of Precip.
Yesterday
High -- | Low -- °F
Precip. -- in
Pressure 29.96 in
Visibility 1.2 miles
Clouds Scattered Clouds 200 ft
Overcast 1000 ft
Windchill 33 °F
Dew Point 31 °F
Humidity 94%
Rainfall 0.00 in
Snow Depth Not available.
6:57 AM 4:17 PM
Waxing Crescent, 25% visible
METAR KOXI 041935Z AUTO 09005KT 1 1/4SM SCT002 OVC010 00/M05 A2996 RMK AO1
Pressure 29.96 in
Visibility 1.2 miles
Clouds Scattered Clouds 200 ft
Overcast 1000 ft
Windchill 33 °F
Dew Point 31 °F
Humidity 94%
Rainfall 0.00 in
Snow Depth Not available.
6:57 AM 4:17 PM
Waxing Crescent, 25% visible
METAR KOXI 041935Z AUTO 09005KT 1 1/4SM SCT002 OVC010 00/M05 A2996 RMK AO1

10-Day Weather Forecast

Almanac

Astronomy

Dec. 04, 2016 Rise Set
Actual Time
Civil Twilight
Nautical Twilight
Astronomical Twilight
Moon
Length of Visible Light
Length of Day
Tomorrow will be .
, % of the Moon is Illuminated

Today's Extremes

State Highs State Lows

Community

WunderPhotos

Upload Photos

1,955,652 photos uploaded!

WunderBlog® & News

Nearby

Air Quality

  Air Quality AQ Index Pollutant
Not available.

Snow Depth

Station Depth Elevation

Earthquake Activity

City Distance Mag. Time & Date
Minimum magnitude displayed is 2.5.

Coastal Water Temperatures

Place Temperature

Stations

Nearby Weather Stations

Station Location Temp. Windchill Dew Point Humidity Wind Precip. Elev Updated Type
                   

Watches & Warnings

There are currently no watches in effect.